Time;durP1;ratioP1;P1;durP2;ratioP2;P2;SDS_P1;SDS_P2;PMS_P1;PMS_P2;Temp;Humidity;BMP_temperature;BMP_pressure;BME280_temperature;BME280_humidity;BME280_pressure;Samples;Min_cycle;Max_cycle;Signal;HPM_P1;HPM_P2
2023/04/15 00:04:39;;;;;;;0.47;0.32;;;;;;;7.39;100.00;100897.56;10406063;28;20080;-78
2023/04/15 00:09:41;;;;;;;0.45;0.30;;;;;;;7.44;100.00;100890.91;10415849;28;20451;-77
2023/04/15 00:14:43;;;;;;;0.08;0.08;;;;;;;7.82;100.00;100898.31;10420520;28;20083;-77
2023/04/15 00:19:45;;;;;;;0.00;0.00;;;;;;;7.78;100.00;100902.47;10402509;28;20036;-77
2023/04/15 00:24:46;;;;;;;0.10;0.10;;;;;;;8.00;100.00;100900.69;10411424;28;20037;-77
2023/04/15 00:29:48;;;;;;;0.00;0.00;;;;;;;7.63;100.00;100903.59;10411105;28;20037;-77
2023/04/15 00:34:49;;;;;;;0.35;0.20;;;;;;;7.74;100.00;100900.59;10409974;28;20064;-77
2023/04/15 00:39:51;;;;;;;0.10;0.10;;;;;;;7.43;100.00;100900.31;10407434;28;20462;-77
2023/04/15 00:44:52;;;;;;;0.10;0.10;;;;;;;7.46;100.00;100892.72;10403210;28;20056;-78
2023/04/15 00:49:55;;;;;;;1.10;0.47;;;;;;;7.56;100.00;100906.75;10402118;28;20099;-77
2023/04/15 00:54:57;;;;;;;0.10;0.10;;;;;;;7.43;100.00;100905.44;10409631;28;20045;-77
2023/04/15 00:59:59;;;;;;;0.52;0.45;;;;;;;7.13;100.00;100905.09;10404825;28;20604;-77
2023/04/15 01:05:03;;;;;;;1.45;0.80;;;;;;;7.49;100.00;100894.50;10412809;28;20547;-77
2023/04/15 01:10:05;;;;;;;0.10;0.10;;;;;;;6.90;100.00;100901.59;10410502;28;20658;-77
2023/04/15 01:15:08;;;;;;;0.10;0.10;;;;;;;7.10;100.00;100904.97;10406538;28;20133;-77
2023/04/15 01:20:10;;;;;;;0.68;0.25;;;;;;;7.11;100.00;100899.03;10406427;28;20788;-78
2023/04/15 01:25:18;;;;;;;0.10;0.10;;;;;;;6.82;100.00;100901.28;10408105;28;20073;-77
2023/04/15 01:30:20;;;;;;;0.32;0.32;;;;;;;6.72;100.00;100907.72;10393198;28;20095;-77
2023/04/15 01:35:22;;;;;;;0.38;0.20;;;;;;;6.82;100.00;100914.09;10403030;28;20069;-78
2023/04/15 01:40:25;;;;;;;0.00;0.00;;;;;;;7.29;100.00;100909.16;10396621;28;20046;-77
2023/04/15 01:45:27;;;;;;;0.20;0.20;;;;;;;7.17;100.00;100906.97;10405817;28;20516;-77
2023/04/15 01:50:29;;;;;;;0.00;0.00;;;;;;;7.07;100.00;100907.41;10385274;28;20046;-77
2023/04/15 01:55:31;;;;;;;0.85;0.55;;;;;;;6.65;100.00;100919.41;10402239;28;20581;-77
2023/04/15 02:00:32;;;;;;;0.20;0.20;;;;;;;6.94;100.00;100908.59;10411450;28;20049;-77
2023/04/15 02:05:34;;;;;;;0.98;0.30;;;;;;;7.06;100.00;100923.59;10406757;28;20037;-78
2023/04/15 02:10:37;;;;;;;0.35;0.35;;;;;;;7.19;100.00;100919.84;10401349;28;20045;-77
2023/04/15 02:15:39;;;;;;;0.22;0.20;;;;;;;6.98;100.00;100929.28;10403241;28;20056;-78
2023/04/15 02:20:42;;;;;;;0.13;0.13;;;;;;;7.11;100.00;100929.78;10405913;28;20069;-77
2023/04/15 02:25:43;;;;;;;0.30;0.30;;;;;;;7.04;100.00;100935.44;10403463;28;20038;-77
2023/04/15 02:30:56;;;;;;;0.00;0.00;;;;;;;7.25;100.00;100931.22;10411424;28;20049;-77
2023/04/15 02:35:58;;;;;;;0.35;0.17;;;;;;;7.14;100.00;100938.47;10411772;28;20056;-77
2023/04/15 02:41:00;;;;;;;0.30;0.25;;;;;;;7.02;100.00;100949.91;10404051;28;20052;-77
2023/04/15 02:46:03;;;;;;;1.08;0.32;;;;;;;6.85;100.00;100944.94;10389187;28;20034;-77
2023/04/15 02:51:19;;;;;;;0.20;0.17;;;;;;;7.02;100.00;100943.09;10382819;28;20057;-78
2023/04/15 02:56:22;;;;;;;0.05;0.05;;;;;;;6.95;100.00;100957.34;10405497;28;20033;-78
2023/04/15 03:01:23;;;;;;;0.88;0.30;;;;;;;6.55;100.00;100960.75;10403135;28;20049;-77
2023/04/15 03:06:25;;;;;;;0.20;0.20;;;;;;;6.75;100.00;100963.28;10400313;28;20042;-77
2023/04/15 03:11:28;;;;;;;1.40;0.52;;;;;;;6.66;100.00;100962.09;10403242;28;20110;-78
2023/04/15 03:16:29;;;;;;;0.65;0.43;;;;;;;6.71;100.00;100966.53;10398572;28;20038;-77
2023/04/15 03:21:32;;;;;;;0.13;0.10;;;;;;;6.43;100.00;100975.59;10414287;28;20427;-77
2023/04/15 03:26:33;;;;;;;0.17;0.17;;;;;;;6.66;100.00;100964.66;10407269;28;20055;-77
2023/04/15 03:31:41;;;;;;;0.40;0.40;;;;;;;6.55;100.00;100973.56;10414414;28;20049;-77
2023/04/15 03:36:43;;;;;;;0.10;0.10;;;;;;;6.50;100.00;100977.63;10412694;28;20042;-77
2023/04/15 03:41:45;;;;;;;0.10;0.10;;;;;;;6.57;100.00;100979.63;10410148;28;20046;-77
2023/04/15 03:46:46;;;;;;;0.10;0.10;;;;;;;6.53;100.00;100982.84;10405703;28;20500;-77
2023/04/15 03:51:48;;;;;;;0.45;0.22;;;;;;;6.40;100.00;100988.25;10395444;28;20048;-77
2023/04/15 03:56:49;;;;;;;0.75;0.47;;;;;;;6.33;100.00;100990.53;10401903;28;20108;-77
2023/04/15 04:01:51;;;;;;;5.78;0.30;;;;;;;6.41;100.00;101002.78;10420080;28;20148;-78
2023/04/15 04:06:52;;;;;;;0.38;0.32;;;;;;;6.39;100.00;101004.41;10402997;28;20038;-77
2023/04/15 04:11:55;;;;;;;0.20;0.10;;;;;;;6.35;100.00;101013.63;10405924;28;20041;-77
2023/04/15 04:16:56;;;;;;;1.00;0.70;;;;;;;6.31;100.00;101011.75;10418354;28;20075;-78
2023/04/15 04:21:58;;;;;;;1.52;0.50;;;;;;;6.32;100.00;101016.94;10417861;28;20407;-77
2023/04/15 04:26:59;;;;;;;0.17;0.17;;;;;;;6.33;100.00;101022.91;10411877;28;20090;-77
2023/04/15 04:32:01;;;;;;;0.03;0.03;;;;;;;6.26;100.00;101024.34;10411530;28;20470;-77
2023/04/15 04:37:02;;;;;;;0.95;0.77;;;;;;;6.22;100.00;101037.78;10417867;28;20041;-77
2023/04/15 04:42:04;;;;;;;0.20;0.20;;;;;;;6.15;100.00;101035.75;10413640;28;20133;-77
2023/04/15 04:47:06;;;;;;;0.13;0.13;;;;;;;6.36;100.00;101035.84;10416466;28;20144;-77
2023/04/15 04:52:08;;;;;;;0.68;0.68;;;;;;;6.13;100.00;101042.50;10406054;28;20045;-77
2023/04/15 04:57:09;;;;;;;1.00;0.65;;;;;;;6.18;100.00;101046.13;10418786;28;20129;-77
2023/04/15 05:02:11;;;;;;;1.27;0.30;;;;;;;6.30;100.00;101051.81;10407496;28;20132;-77
2023/04/15 05:07:12;;;;;;;0.30;0.30;;;;;;;6.15;100.00;101045.97;10414612;28;20061;-77
2023/04/15 05:12:14;;;;;;;4.88;1.05;;;;;;;6.27;100.00;101059.34;10409371;28;20050;-77
2023/04/15 05:17:15;;;;;;;0.10;0.10;;;;;;;6.38;100.00;101058.94;10406228;28;20041;-78
2023/04/15 05:22:17;;;;;;;0.20;0.20;;;;;;;6.45;100.00;101055.84;10409629;28;20056;-77
2023/04/15 05:27:18;;;;;;;0.43;0.40;;;;;;;6.53;100.00;101069.03;10421223;28;20496;-78
2023/04/15 05:32:20;;;;;;;0.35;0.35;;;;;;;6.69;100.00;101070.56;10403259;28;20061;-78
2023/04/15 05:37:21;;;;;;;4.07;1.15;;;;;;;6.66;100.00;101072.19;10408094;28;20046;-77
2023/04/15 05:42:23;;;;;;;0.73;0.45;;;;;;;6.79;100.00;101077.88;10401674;28;20073;-77
2023/04/15 05:47:24;;;;;;;0.13;0.13;;;;;;;6.83;100.00;101090.88;10407202;28;20041;-78
2023/04/15 05:52:26;;;;;;;0.43;0.38;;;;;;;6.95;100.00;101098.22;10401313;28;20488;-77
2023/04/15 05:57:27;;;;;;;0.28;0.28;;;;;;;6.94;100.00;101108.38;10408187;28;20055;-77
2023/04/15 06:02:29;;;;;;;0.32;0.32;;;;;;;7.14;100.00;101117.84;10401524;28;20041;-78
2023/04/15 06:07:31;;;;;;;0.82;0.32;;;;;;;7.23;100.00;101126.69;10411254;28;20045;-77
2023/04/15 06:12:32;;;;;;;0.17;0.17;;;;;;;7.21;100.00;101123.22;10405157;28;20120;-77
2023/04/15 06:17:34;;;;;;;0.70;0.32;;;;;;;7.33;100.00;101135.69;10402928;28;20092;-77
2023/04/15 06:22:36;;;;;;;0.15;0.15;;;;;;;7.63;100.00;101152.34;10387660;28;20111;-78
2023/04/15 06:27:37;;;;;;;0.32;0.32;;;;;;;7.71;100.00;101157.81;10409817;28;20602;-77
2023/04/15 06:32:39;;;;;;;0.93;0.28;;;;;;;7.60;100.00;101165.06;10403804;28;20107;-78
2023/04/15 06:37:40;;;;;;;0.05;0.05;;;;;;;7.73;100.00;101155.28;10397867;28;20033;-77
2023/04/15 06:42:42;;;;;;;0.20;0.20;;;;;;;7.87;100.00;101164.44;10400949;28;20052;-77
2023/04/15 06:47:43;;;;;;;0.75;0.75;;;;;;;8.20;100.00;101169.19;10397540;28;20117;-77
2023/04/15 06:52:45;;;;;;;0.90;0.77;;;;;;;8.95;100.00;101178.03;10401139;28;20049;-77
2023/04/15 06:57:46;;;;;;;2.45;1.23;;;;;;;8.87;100.00;101190.63;10401641;28;20040;-76
2023/04/15 07:02:48;;;;;;;1.50;0.90;;;;;;;9.21;100.00;101185.84;10397548;28;20500;-77
2023/04/15 07:07:50;;;;;;;1.08;0.90;;;;;;;9.13;100.00;101188.13;10403536;28;20527;-77
2023/04/15 07:12:51;;;;;;;1.00;0.80;;;;;;;9.27;100.00;101195.47;10415043;28;20136;-77
2023/04/15 07:17:53;;;;;;;2.83;0.88;;;;;;;9.82;100.00;101199.09;10415806;28;20112;-77
2023/04/15 07:22:55;;;;;;;0.28;0.22;;;;;;;10.18;100.00;101206.28;10413873;28;20048;-76
2023/04/15 07:27:56;;;;;;;0.47;0.43;;;;;;;10.21;100.00;101215.81;10419174;28;20121;-77
2023/04/15 07:32:58;;;;;;;0.90;0.60;;;;;;;10.81;100.00;101214.25;10411140;28;20048;-77
2023/04/15 07:37:59;;;;;;;0.68;0.43;;;;;;;10.35;100.00;101234.28;10402101;28;20461;-78
2023/04/15 07:43:01;;;;;;;0.43;0.43;;;;;;;10.15;100.00;101222.50;10399717;28;20069;-78
2023/04/15 07:48:02;;;;;;;0.68;0.65;;;;;;;10.67;100.00;101217.28;10397896;28;20120;-78
2023/04/15 07:53:05;;;;;;;1.05;0.60;;;;;;;10.39;100.00;101226.72;10406358;28;20072;-77
2023/04/15 07:58:06;;;;;;;1.02;0.63;;;;;;;10.70;100.00;101227.66;10402654;28;20046;-77
2023/04/15 08:03:08;;;;;;;19.88;0.85;;;;;;;10.69;100.00;101241.38;10383808;28;20046;-77
2023/04/15 08:08:10;;;;;;;1.20;0.38;;;;;;;10.18;100.00;101249.16;10394046;28;20072;-77
2023/04/15 08:13:11;;;;;;;2.17;1.27;;;;;;;10.13;100.00;101255.03;10386148;28;20416;-77
2023/04/15 08:18:13;;;;;;;2.15;0.75;;;;;;;10.01;100.00;101264.94;10391324;28;20045;-77
2023/04/15 08:23:15;;;;;;;1.55;0.75;;;;;;;10.46;100.00;101263.84;10389718;28;20071;-76
2023/04/15 08:28:17;;;;;;;1.63;0.55;;;;;;;10.55;100.00;101258.09;10388974;28;20042;-77
2023/04/15 08:33:18;;;;;;;1.55;1.30;;;;;;;10.54;100.00;101271.81;10405211;28;20107;-77
2023/04/15 08:38:20;;;;;;;0.75;0.52;;;;;;;11.08;100.00;101266.63;10385070;28;20727;-78
2023/04/15 08:43:25;;;;;;;0.10;0.10;;;;;;;11.34;100.00;101269.09;10399385;28;20595;-77
2023/04/15 08:48:32;;;;;;;0.25;0.25;;;;;;;10.99;100.00;101276.66;10399421;28;20055;-77
2023/04/15 08:53:34;;;;;;;1.40;0.50;;;;;;;11.57;100.00;101279.19;10401430;28;20046;-77
2023/04/15 08:58:36;;;;;;;0.85;0.65;;;;;;;11.25;100.00;101281.72;10404609;28;20064;-77
2023/04/15 09:03:39;;;;;;;0.50;0.40;;;;;;;11.31;100.00;101293.94;10399676;28;20049;-77
2023/04/15 09:08:41;;;;;;;0.40;0.38;;;;;;;12.01;100.00;101289.88;10405170;28;20045;-77
2023/04/15 09:13:42;;;;;;;0.70;0.20;;;;;;;11.84;100.00;101306.56;10400327;28;20415;-77
2023/04/15 09:18:44;;;;;;;0.75;0.30;;;;;;;11.86;100.00;101307.50;10397420;28;20084;-77
2023/04/15 09:23:58;;;;;;;1.55;0.40;;;;;;;11.37;100.00;101313.03;10398468;28;20132;-77
2023/04/15 09:29:06;;;;;;;1.42;0.50;;;;;;;11.45;100.00;101322.69;10401120;28;20034;-76
2023/04/15 09:34:09;;;;;;;0.08;0.05;;;;;;;11.64;100.00;101332.72;10402017;28;20042;-77
2023/04/15 09:39:10;;;;;;;0.30;0.20;;;;;;;10.99;100.00;101341.09;10397589;28;20537;-76
2023/04/15 09:44:22;;;;;;;0.52;0.43;;;;;;;11.17;100.00;101342.50;10408715;28;20440;-76
2023/04/15 09:49:24;;;;;;;1.75;0.43;;;;;;;11.64;100.00;101355.06;10399769;28;20505;-77
2023/04/15 09:54:36;;;;;;;0.00;0.00;;;;;;;12.41;100.00;101346.84;10407210;28;20061;-77
2023/04/15 09:59:38;;;;;;;0.40;0.20;;;;;;;11.47;100.00;101357.16;10402896;28;20076;-77
2023/04/15 10:04:40;;;;;;;0.55;0.30;;;;;;;11.85;100.00;101365.13;10372324;28;20073;-76
2023/04/15 10:09:44;;;;;;;0.43;0.35;;;;;;;12.10;100.00;101361.53;10387090;28;20119;-76
2023/04/15 10:14:58;;;;;;;1.55;1.02;;;;;;;11.69;100.00;101369.00;10400758;28;20046;-77
2023/04/15 10:20:01;;;;;;;0.38;0.28;;;;;;;11.32;100.00;101367.91;10399791;28;20124;-77
2023/04/15 10:25:05;;;;;;;0.13;0.13;;;;;;;11.46;100.00;101370.88;10408160;28;20559;-76
2023/04/15 10:30:08;;;;;;;0.00;0.00;;;;;;;11.23;100.00;101378.81;10399314;28;20115;-77
2023/04/15 10:35:10;;;;;;;0.60;0.52;;;;;;;11.59;100.00;101373.00;10404162;28;20041;-77
2023/04/15 10:40:22;;;;;;;0.60;0.22;;;;;;;11.25;100.00;101382.31;10406707;28;20116;-78
2023/04/15 10:45:26;;;;;;;0.30;0.30;;;;;;;11.24;100.00;101390.88;10395884;28;20548;-78
2023/04/15 10:50:31;;;;;;;0.13;0.13;;;;;;;11.71;100.00;101388.84;10405725;28;20073;-78
2023/04/15 10:55:33;;;;;;;0.70;0.57;;;;;;;11.59;100.00;101383.31;10402819;28;20053;-77
2023/04/15 11:00:38;;;;;;;0.20;0.20;;;;;;;12.04;100.00;101377.75;10400404;28;20077;-77
2023/04/15 11:05:52;;;;;;;0.15;0.15;;;;;;;11.79;100.00;101390.78;10409312;28;20449;-77
2023/04/15 11:10:54;;;;;;;0.20;0.20;;;;;;;11.61;100.00;101396.28;10417065;28;20058;-78
2023/04/15 11:15:57;;;;;;;0.00;0.00;;;;;;;11.97;100.00;101390.44;10392339;28;20033;-77
2023/04/15 11:21:03;;;;;;;0.10;0.10;;;;;;;12.52;100.00;101388.47;10407616;28;20049;-76
2023/04/15 11:26:11;;;;;;;0.30;0.30;;;;;;;12.14;100.00;101396.06;10390487;28;20042;-77
2023/04/15 11:31:15;;;;;;;0.30;0.30;;;;;;;12.28;100.00;101401.63;10391576;28;20050;-77
2023/04/15 11:36:16;;;;;;;0.25;0.20;;;;;;;11.83;100.00;101408.09;10410802;28;20474;-77
2023/04/15 11:41:22;;;;;;;0.00;0.00;;;;;;;12.22;100.00;101397.16;10400011;28;20135;-76
2023/04/15 11:46:30;;;;;;;0.57;0.22;;;;;;;11.87;100.00;101412.53;10409358;28;20049;-77
2023/04/15 11:51:34;;;;;;;0.30;0.20;;;;;;;11.78;100.00;101415.69;10400221;28;20147;-78
2023/04/15 11:56:35;;;;;;;0.10;0.10;;;;;;;12.28;100.00;101418.00;10405043;28;20548;-77
2023/04/15 12:01:38;;;;;;;0.52;0.20;;;;;;;12.12;100.00;101426.16;10400675;28;20156;-77
2023/04/15 12:06:40;;;;;;;0.17;0.13;;;;;;;11.61;100.00;101433.28;10400415;28;20533;-76
2023/04/15 12:11:46;;;;;;;0.20;0.20;;;;;;;11.37;100.00;101448.88;10398110;28;20041;-76
2023/04/15 12:16:53;;;;;;;0.32;0.32;;;;;;;11.27;100.00;101463.19;10407671;28;20488;-77
2023/04/15 12:22:08;;;;;;;0.77;0.30;;;;;;;11.55;100.00;101464.06;10414056;28;20048;-76
2023/04/15 12:27:11;;;;;;;0.20;0.20;;;;;;;11.69;100.00;101467.94;10410149;28;20056;-77
2023/04/15 12:32:15;;;;;;;0.20;0.15;;;;;;;11.84;100.00;101479.56;10407056;28;20069;-77
2023/04/15 12:37:17;;;;;;;0.45;0.25;;;;;;;11.52;100.00;101482.00;10406641;28;20080;-78
2023/04/15 12:42:19;;;;;;;0.00;0.00;;;;;;;11.53;100.00;101494.09;10410009;28;20121;-77
2023/04/15 12:47:20;;;;;;;0.00;0.00;;;;;;;11.51;100.00;101493.16;10391302;28;20451;-77
2023/04/15 12:52:23;;;;;;;0.17;0.10;;;;;;;11.67;100.00;101497.97;10409096;28;20126;-77
2023/04/15 12:57:24;;;;;;;0.20;0.20;;;;;;;11.46;100.00;101497.31;10404176;28;20042;-77
2023/04/15 13:02:27;;;;;;;0.70;0.10;;;;;;;11.43;100.00;101509.28;10400870;28;20056;-77
2023/04/15 13:07:29;;;;;;;0.32;0.28;;;;;;;11.88;100.00;101507.19;10398997;28;20072;-77
2023/04/15 13:12:31;;;;;;;0.17;0.17;;;;;;;11.56;100.00;101523.44;10396578;28;20057;-78
2023/04/15 13:17:33;;;;;;;0.45;0.25;;;;;;;11.61;100.00;101521.03;10403259;28;20049;-78
2023/04/15 13:22:34;;;;;;;0.15;0.15;;;;;;;12.13;100.00;101519.19;10396271;28;20072;-77
2023/04/15 13:27:36;;;;;;;0.05;0.05;;;;;;;12.12;100.00;101519.13;10413930;28;20071;-77
2023/04/15 13:32:37;;;;;;;0.08;0.08;;;;;;;11.53;100.00;101532.81;10399992;28;20140;-78
2023/04/15 13:37:40;;;;;;;0.15;0.10;;;;;;;12.12;100.00;101529.47;10396562;28;20107;-77
2023/04/15 13:42:42;;;;;;;2.45;1.75;;;;;;;11.53;100.00;101548.28;10401369;28;20052;-79
2023/04/15 13:47:44;;;;;;;0.00;0.00;;;;;;;11.26;100.00;101554.31;10400172;28;20044;-78
2023/04/15 13:52:45;;;;;;;0.17;0.10;;;;;;;11.16;100.00;101557.38;10393067;28;20041;-77
2023/04/15 13:57:47;;;;;;;0.10;0.10;;;;;;;11.57;100.00;101566.50;10404267;28;20144;-77
2023/04/15 14:02:48;;;;;;;0.85;0.85;;;;;;;11.36;100.00;101571.81;10407787;28;20532;-77
2023/04/15 14:07:50;;;;;;;0.20;0.15;;;;;;;11.19;100.00;101568.69;10404972;28;20038;-77
2023/04/15 14:12:52;;;;;;;0.43;0.20;;;;;;;11.42;100.00;101576.31;10400633;28;20038;-77
2023/04/15 14:17:54;;;;;;;0.05;0.05;;;;;;;11.14;100.00;101589.97;10407605;28;20124;-77
2023/04/15 14:22:55;;;;;;;0.17;0.17;;;;;;;10.97;100.00;101584.22;10403272;28;20069;-77
2023/04/15 14:27:57;;;;;;;0.00;0.00;;;;;;;10.85;100.00;101597.56;10403567;28;20574;-77
2023/04/15 14:32:58;;;;;;;1.20;0.45;;;;;;;11.09;100.00;101598.44;10418077;28;20120;-77
2023/04/15 14:38:00;;;;;;;0.13;0.13;;;;;;;11.18;100.00;101597.00;10417563;28;20061;-77
2023/04/15 14:43:02;;;;;;;0.13;0.10;;;;;;;11.01;100.00;101605.03;10410237;28;20049;-77
2023/04/15 14:48:05;;;;;;;0.00;0.00;;;;;;;11.07;100.00;101612.97;10412912;28;20045;-77
2023/04/15 14:53:08;;;;;;;0.08;0.08;;;;;;;10.93;100.00;101629.66;10414598;28;20056;-77
2023/04/15 14:58:10;;;;;;;0.00;0.00;;;;;;;10.73;100.00;101632.41;10411626;28;20121;-77
2023/04/15 15:03:11;;;;;;;0.13;0.13;;;;;;;10.91;100.00;101639.03;10418450;28;20397;-77
2023/04/15 15:08:13;;;;;;;0.20;0.10;;;;;;;10.84;100.00;101640.53;10415146;28;20061;-77
2023/04/15 15:13:15;;;;;;;1.08;0.57;;;;;;;10.94;100.00;101642.63;10402640;28;20084;-76
2023/04/15 15:18:17;;;;;;;0.00;0.00;;;;;;;10.97;100.00;101644.44;10410236;28;20088;-77
2023/04/15 15:23:20;;;;;;;0.17;0.17;;;;;;;10.56;100.00;101651.50;10419542;22;20478;-77
2023/04/15 15:28:22;;;;;;;0.43;0.15;;;;;;;10.65;100.00;101656.13;10384601;28;20424;-76
2023/04/15 15:33:23;;;;;;;0.20;0.20;;;;;;;10.55;100.00;101666.09;10372503;28;20050;-77
2023/04/15 15:38:25;;;;;;;0.45;0.45;;;;;;;10.79;100.00;101660.97;10372062;28;20180;-77
2023/04/15 15:43:26;;;;;;;0.00;0.00;;;;;;;10.57;100.00;101679.91;10366741;28;20050;-79
2023/04/15 15:48:28;;;;;;;0.40;0.30;;;;;;;10.40;100.00;101681.81;10378763;28;20072;-78
2023/04/15 15:53:29;;;;;;;0.00;0.00;;;;;;;10.41;100.00;101683.56;10365491;28;20049;-78
2023/04/15 15:58:31;;;;;;;0.05;0.05;;;;;;;10.22;100.00;101661.34;10394317;28;20425;-77
2023/04/15 16:03:32;;;;;;;0.00;0.00;;;;;;;10.21;100.00;101689.59;10370646;28;20046;-77
2023/04/15 16:08:34;;;;;;;0.30;0.10;;;;;;;10.16;100.00;101687.72;10376547;28;20117;-77
2023/04/15 16:13:36;;;;;;;0.10;0.10;;;;;;;10.34;100.00;101706.44;10367596;28;20137;-77
2023/04/15 16:18:37;;;;;;;0.15;0.15;;;;;;;10.28;100.00;101704.50;10392552;28;20144;-77
2023/04/15 16:23:39;;;;;;;0.00;0.00;;;;;;;10.06;100.00;101715.59;10387517;28;20056;-76
2023/04/15 16:28:41;;;;;;;0.03;0.00;;;;;;;10.09;100.00;101708.88;10358872;28;20068;-77
2023/04/15 16:33:42;;;;;;;0.28;0.10;;;;;;;10.22;100.00;101722.28;10375480;28;20056;-77
2023/04/15 16:38:47;;;;;;;0.00;0.00;;;;;;;10.15;100.00;101729.75;10383191;28;20037;-78
2023/04/15 16:43:49;;;;;;;0.00;0.00;;;;;;;10.05;100.00;101744.75;10376111;28;20145;-77
2023/04/15 16:48:50;;;;;;;0.00;0.00;;;;;;;9.64;100.00;101734.47;10396729;28;20120;-77
2023/04/15 16:53:51;;;;;;;0.00;0.00;;;;;;;9.77;100.00;101749.63;10385601;28;20053;-78
2023/04/15 16:58:53;;;;;;;0.00;0.00;;;;;;;9.84;100.00;101745.59;10369226;28;20087;-78
2023/04/15 17:03:55;;;;;;;0.00;0.00;;;;;;;9.81;100.00;101756.66;10365988;28;20049;-78
2023/04/15 17:08:56;;;;;;;0.73;0.55;;;;;;;9.67;100.00;101760.31;10375123;28;20749;-77
2023/04/15 17:13:58;;;;;;;0.75;0.05;;;;;;;9.49;100.00;101758.69;10392485;28;20196;-77
2023/04/15 17:18:59;;;;;;;0.00;0.00;;;;;;;9.66;100.00;101769.75;10399354;28;20092;-76
2023/04/15 17:24:01;;;;;;;0.00;0.00;;;;;;;9.53;100.00;101776.03;10378011;28;20054;-77
2023/04/15 17:29:02;;;;;;;0.00;0.00;;;;;;;9.40;100.00;101794.31;10390586;28;20066;-77
2023/04/15 17:34:04;;;;;;;0.52;0.52;;;;;;;9.41;100.00;101787.47;10388282;28;20136;-77
2023/04/15 17:39:13;;;;;;;0.00;0.00;;;;;;;9.60;100.00;101797.78;10396221;28;20072;-77
2023/04/15 17:44:14;;;;;;;2.05;0.52;;;;;;;9.41;100.00;101800.31;10363026;28;20124;-77
2023/04/15 17:49:16;;;;;;;0.30;0.25;;;;;;;9.38;100.00;101798.50;10361717;28;20042;-77
2023/04/15 17:54:17;;;;;;;0.00;0.00;;;;;;;9.44;100.00;101811.63;10372899;28;20123;-77
2023/04/15 17:59:19;;;;;;;0.00;0.00;;;;;;;9.47;100.00;101816.94;10347822;28;20104;-77
2023/04/15 18:04:20;;;;;;;0.15;0.15;;;;;;;9.32;100.00;101818.81;10347007;28;20188;-77
2023/04/15 18:09:26;;;;;;;0.10;0.00;;;;;;;9.50;100.00;101827.34;10370783;28;20046;-76
2023/04/15 18:14:28;;;;;;;0.10;0.10;;;;;;;9.34;100.00;101830.06;10365658;28;20530;-77
2023/04/15 18:19:35;;;;;;;0.10;0.00;;;;;;;9.50;100.00;101834.19;10350247;28;20046;-77
2023/04/15 18:24:36;;;;;;;1.20;0.98;;;;;;;9.24;100.00;101844.16;10363770;28;20073;-77
2023/04/15 18:29:38;;;;;;;0.10;0.10;;;;;;;9.19;100.00;101855.91;10349965;28;20045;-77
2023/04/15 18:34:41;;;;;;;0.10;0.10;;;;;;;9.31;100.00;101861.63;10365523;28;20050;-77
2023/04/15 18:39:43;;;;;;;0.43;0.10;;;;;;;9.48;100.00;101871.81;10348040;28;20157;-77
2023/04/15 18:44:44;;;;;;;0.20;0.10;;;;;;;9.52;100.00;101874.59;10366577;28;20069;-77
2023/04/15 18:49:46;;;;;;;0.10;0.10;;;;;;;9.31;100.00;101876.19;10342694;28;20046;-77
2023/04/15 18:54:48;;;;;;;0.00;0.00;;;;;;;9.25;100.00;101888.75;10363979;28;20088;-77
2023/04/15 18:59:49;;;;;;;0.40;0.35;;;;;;;9.30;100.00;101895.00;10348591;28;20037;-77
2023/04/15 19:04:50;;;;;;;0.00;0.00;;;;;;;9.30;100.00;101911.31;10342877;28;20049;-77
2023/04/15 19:09:52;;;;;;;0.00;0.00;;;;;;;9.10;100.00;101906.91;10348246;28;20116;-77
2023/04/15 19:14:53;;;;;;;0.10;0.10;;;;;;;9.27;100.00;101906.03;10360320;28;20042;-77
2023/04/15 19:19:55;;;;;;;0.85;0.30;;;;;;;9.10;100.00;101912.94;10348757;28;20037;-77
2023/04/15 19:24:56;;;;;;;0.00;0.00;;;;;;;8.99;100.00;101914.09;10365377;28;20071;-77
2023/04/15 19:29:58;;;;;;;0.00;0.00;;;;;;;9.11;100.00;101918.94;10362056;28;20044;-78
2023/04/15 19:34:59;;;;;;;0.88;0.43;;;;;;;9.01;100.00;101912.47;10364890;28;20124;-77
2023/04/15 19:40:01;;;;;;;1.00;0.20;;;;;;;9.29;100.00;101911.22;10345882;28;20072;-78
2023/04/15 19:45:03;;;;;;;0.28;0.28;;;;;;;9.07;100.00;101917.03;10365401;28;20081;-77
2023/04/15 19:50:06;;;;;;;0.03;0.03;;;;;;;9.18;100.00;101932.19;10347998;28;20052;-77
2023/04/15 19:55:07;;;;;;;0.05;0.05;;;;;;;9.19;100.00;101933.94;10328261;28;20140;-77
2023/04/15 20:00:09;;;;;;;0.03;0.00;;;;;;;8.94;100.00;101926.72;10365151;28;20048;-77
2023/04/15 20:05:12;;;;;;;0.20;0.13;;;;;;;9.05;100.00;101927.22;10364778;28;20042;-77
2023/04/15 20:10:14;;;;;;;2.50;0.63;;;;;;;9.11;100.00;101929.22;10352783;28;20050;-77
2023/04/15 20:15:18;;;;;;;0.47;0.40;;;;;;;8.89;100.00;101931.66;10372094;28;20085;-77
2023/04/15 20:20:20;;;;;;;0.55;0.55;;;;;;;9.01;100.00;101935.63;10351388;28;20058;-78
2023/04/15 20:25:22;;;;;;;0.00;0.00;;;;;;;8.94;100.00;101936.13;10350765;28;20112;-77
2023/04/15 20:30:24;;;;;;;0.32;0.32;;;;;;;8.88;100.00;101936.69;10346824;28;20120;-77
2023/04/15 20:35:29;;;;;;;1.00;0.20;;;;;;;8.94;100.00;101936.13;10335118;28;20069;-77
2023/04/15 20:40:32;;;;;;;0.75;0.47;;;;;;;9.02;100.00;101934.81;10353025;28;20478;-76
2023/04/15 20:45:34;;;;;;;0.00;0.00;;;;;;;9.11;100.00;101927.56;10353622;28;20508;-77
2023/04/15 20:50:35;;;;;;;0.55;0.45;;;;;;;8.89;100.00;101926.50;10348777;28;20137;-76
2023/04/15 20:55:37;;;;;;;1.02;0.45;;;;;;;9.02;100.00;101924.53;10352819;28;20046;-78
2023/04/15 21:00:38;;;;;;;0.75;0.28;;;;;;;8.81;100.00;101926.91;10336443;28;20064;-77
2023/04/15 21:05:40;;;;;;;0.00;0.00;;;;;;;8.91;100.00;101941.09;10366080;28;20524;-78
2023/04/15 21:10:41;;;;;;;0.22;0.15;;;;;;;8.89;100.00;101931.66;10353039;28;20464;-77
2023/04/15 21:15:44;;;;;;;0.45;0.40;;;;;;;9.00;100.00;101946.69;10365414;28;20060;-77
2023/04/15 21:20:45;;;;;;;0.10;0.10;;;;;;;8.98;100.00;101945.72;10368363;28;20045;-77
2023/04/15 21:25:47;;;;;;;0.25;0.25;;;;;;;9.15;100.00;101954.28;10350836;28;20567;-76
2023/04/15 21:30:48;;;;;;;0.47;0.20;;;;;;;9.00;100.00;101951.84;10364708;28;20129;-76
2023/04/15 21:35:51;;;;;;;0.13;0.10;;;;;;;8.89;100.00;101954.78;10351006;28;20040;-77
2023/04/15 21:40:53;;;;;;;0.00;0.00;;;;;;;9.08;100.00;101960.81;10366541;28;20057;-76
2023/04/15 21:45:54;;;;;;;0.35;0.35;;;;;;;9.20;100.00;101970.81;10367696;28;20052;-76
2023/04/15 21:51:15;;;;;;;0.52;0.45;;;;;;;9.26;100.00;101980.53;10368106;28;20042;-77
2023/04/15 21:56:19;;;;;;;0.40;0.17;;;;;;;9.04;100.00;101985.50;10361582;28;20048;-77
2023/04/15 22:01:21;;;;;;;0.32;0.30;;;;;;;9.09;100.00;101988.28;10350315;28;20041;-77
2023/04/15 22:06:22;;;;;;;0.45;0.32;;;;;;;9.29;100.00;101997.00;10357309;28;20112;-78
2023/04/15 22:11:29;;;;;;;5.50;2.75;;;;;;;9.44;100.00;101983.97;10348914;28;20389;-77
2023/04/15 22:16:30;;;;;;;0.20;0.15;;;;;;;9.47;100.00;101991.84;10349708;28;20034;-76
2023/04/15 22:21:32;;;;;;;0.10;0.10;;;;;;;9.38;100.00;101990.53;10330914;28;20455;-77
2023/04/15 22:26:33;;;;;;;0.20;0.20;;;;;;;9.30;100.00;101983.31;10349836;28;20061;-77
2023/04/15 22:31:35;;;;;;;0.40;0.10;;;;;;;9.27;100.00;101982.28;10366907;28;20053;-77
2023/04/15 22:36:37;;;;;;;0.38;0.20;;;;;;;9.35;100.00;101978.38;10364681;28;20034;-78
2023/04/15 22:41:38;;;;;;;0.50;0.50;;;;;;;9.27;100.00;101983.16;10366587;28;20072;-77
2023/04/15 22:46:40;;;;;;;9.95;1.38;;;;;;;9.50;100.00;101989.41;10348706;28;20043;-78
2023/04/15 22:51:42;;;;;;;0.10;0.10;;;;;;;9.56;100.00;102000.81;10328730;28;20505;-77
2023/04/15 22:56:43;;;;;;;0.00;0.00;;;;;;;9.42;100.00;101992.44;10349207;28;20108;-77
2023/04/15 23:01:45;;;;;;;0.40;0.40;;;;;;;9.61;100.00;101994.19;10363670;28;20050;-77
2023/04/15 23:06:46;;;;;;;11.48;0.52;;;;;;;9.26;100.00;102014.81;10347579;28;20041;-77